createdAt,value
2022-09-20T00:01:35.947Z,11.60
2022-09-20T00:04:07.045Z,12.43
2022-09-20T00:06:36.672Z,11.20
2022-09-20T00:09:06.416Z,12.40
2022-09-20T00:11:37.057Z,13.30
2022-09-20T00:14:09.405Z,13.40
2022-09-20T00:16:42.471Z,12.90
2022-09-20T00:19:19.860Z,10.55
2022-09-20T00:21:48.973Z,10.70
2022-09-20T00:24:17.563Z,10.73
2022-09-20T00:26:46.216Z,10.88
2022-09-20T00:29:15.389Z,11.93
2022-09-20T00:31:45.402Z,11.63
2022-09-20T00:34:31.541Z,11.88
2022-09-20T00:37:00.303Z,11.55
2022-09-20T00:39:29.034Z,12.30
2022-09-20T00:41:57.658Z,10.85
2022-09-20T00:44:45.497Z,12.45
2022-09-20T00:47:35.691Z,11.20
2022-09-20T00:50:28.949Z,10.68
2022-09-20T00:53:05.500Z,11.55
2022-09-20T00:55:39.633Z,12.15
2022-09-20T00:58:09.773Z,10.35
2022-09-20T01:00:40.185Z,9.90
2022-09-20T01:03:12.400Z,11.00
2022-09-20T01:05:45.401Z,10.13
2022-09-20T01:08:14.866Z,9.18
2022-09-20T01:10:44.004Z,10.15
2022-09-20T01:13:12.680Z,10.38
2022-09-20T01:15:43.903Z,9.35
2022-09-20T01:18:16.146Z,10.00
2022-09-20T01:20:48.397Z,10.80
2022-09-20T01:23:50.862Z,9.45
2022-09-20T01:27:06.943Z,10.48
2022-09-20T01:30:08.300Z,10.75
2022-09-20T01:32:57.778Z,9.55
2022-09-20T01:35:29.107Z,10.23
2022-09-20T01:38:27.050Z,10.18
2022-09-20T01:41:06.052Z,8.88
2022-09-20T01:43:42.718Z,9.25
2022-09-20T01:46:31.966Z,9.13
2022-09-20T01:49:21.198Z,8.38
2022-09-20T01:52:53.964Z,9.50
2022-09-20T01:56:14.595Z,9.43
2022-09-20T01:59:24.694Z,8.75
2022-09-20T02:02:40.783Z,9.52
2022-09-20T02:05:43.423Z,10.27
2022-09-20T02:09:07.914Z,9.00
2022-09-20T02:11:52.222Z,8.82
2022-09-20T02:14:54.138Z,9.85
2022-09-20T02:17:35.482Z,8.23
2022-09-20T02:20:33.377Z,9.60
2022-09-20T02:23:24.738Z,8.25
2022-09-20T02:26:21.277Z,9.55
2022-09-20T02:29:03.127Z,12.15
2022-09-20T02:32:00.030Z,10.73
2022-09-20T02:34:52.443Z,10.45
2022-09-20T02:38:04.909Z,11.68
2022-09-20T02:41:07.066Z,10.13
2022-09-20T02:43:49.440Z,11.80
2022-09-20T02:46:29.437Z,11.55
2022-09-20T02:49:09.002Z,10.55
2022-09-20T02:51:44.898Z,9.63
2022-09-20T02:54:35.189Z,9.18
2022-09-20T02:57:16.870Z,9.60
2022-09-20T02:59:53.729Z,10.60
2022-09-20T03:02:31.735Z,9.70
2022-09-20T03:05:15.677Z,9.90
2022-09-20T03:08:20.291Z,10.88
2022-09-20T03:11:00.374Z,8.95
2022-09-20T03:13:50.351Z,9.43
2022-09-20T03:16:33.566Z,10.52
2022-09-20T03:19:18.285Z,9.23
2022-09-20T03:22:04.542Z,9.27
2022-09-20T03:24:53.241Z,8.63
2022-09-20T03:27:31.995Z,8.77
2022-09-20T03:30:34.168Z,9.38
2022-09-20T03:33:16.931Z,9.30
2022-09-20T03:36:08.707Z,9.43
2022-09-20T03:38:58.441Z,9.15
2022-09-20T03:41:58.041Z,10.27
2022-09-20T03:44:48.761Z,8.77
2022-09-20T03:47:42.871Z,10.98
2022-09-20T03:50:34.836Z,10.15
2022-09-20T03:53:58.894Z,9.75
2022-09-20T03:56:48.529Z,8.40
2022-09-20T04:00:01.813Z,9.10
2022-09-20T04:02:54.901Z,10.20
2022-09-20T04:05:45.907Z,11.10
2022-09-20T04:08:40.048Z,10.25
2022-09-20T04:11:23.235Z,9.45
2022-09-20T04:13:59.257Z,8.65
2022-09-20T04:16:42.494Z,9.10
2022-09-20T04:19:23.450Z,9.00
2022-09-20T04:21:57.370Z,9.57
2022-09-20T04:24:41.923Z,9.65
2022-09-20T04:27:20.664Z,9.55
2022-09-20T04:30:00.316Z,9.50
2022-09-20T04:32:41.197Z,10.45
2022-09-20T04:35:54.034Z,9.80
2022-09-20T04:38:23.955Z,9.18
2022-09-20T04:41:51.355Z,11.30
2022-09-20T04:45:17.016Z,10.50
2022-09-20T04:48:35.900Z,9.95
2022-09-20T04:52:06.574Z,9.70
2022-09-20T04:55:25.245Z,11.38
2022-09-20T04:58:42.304Z,11.13
2022-09-20T05:02:15.652Z,9.57
2022-09-20T05:05:31.756Z,9.35
2022-09-20T05:08:58.890Z,9.95
2022-09-20T05:12:14.052Z,10.40
2022-09-20T05:15:19.173Z,9.93
2022-09-20T05:18:17.927Z,10.15
2022-09-20T05:21:11.522Z,10.77
2022-09-20T05:24:01.619Z,10.85
2022-09-20T05:26:51.422Z,10.65
2022-09-20T05:29:32.718Z,10.32
2022-09-20T05:32:13.036Z,11.27
2022-09-20T05:34:52.059Z,10.70
2022-09-20T05:37:39.009Z,11.35
2022-09-20T05:40:24.978Z,11.05
2022-09-20T05:43:03.893Z,10.38
2022-09-20T05:50:46.075Z,11.43
2022-09-20T05:54:16.085Z,12.90
2022-09-20T05:56:56.383Z,13.25
2022-09-20T05:59:42.747Z,12.45
2022-09-20T06:02:39.926Z,12.32
2022-09-20T06:05:17.654Z,13.90
2022-09-20T06:08:18.778Z,11.75
2022-09-20T06:11:37.767Z,13.93
2022-09-20T06:14:25.337Z,14.05
2022-09-20T06:17:06.121Z,15.20
2022-09-20T06:19:45.552Z,13.73
2022-09-20T06:22:23.984Z,14.38
2022-09-20T06:25:02.690Z,14.35
2022-09-20T06:27:40.778Z,14.15
2022-09-20T06:30:19.115Z,14.23
2022-09-20T06:33:00.706Z,15.25
2022-09-20T06:35:39.079Z,14.30
2022-09-20T06:39:04.713Z,15.50
2022-09-20T06:41:37.734Z,15.25
2022-09-20T06:44:08.399Z,15.70
2022-09-20T06:46:38.574Z,14.35
2022-09-20T06:49:09.624Z,15.13
2022-09-20T06:51:40.621Z,15.55
2022-09-20T06:54:18.578Z,16.20
2022-09-20T06:56:50.111Z,15.30
2022-09-20T06:59:20.083Z,17.88
2022-09-20T07:01:49.056Z,15.70
2022-09-20T07:04:17.821Z,14.45
2022-09-20T07:06:46.424Z,16.20
2022-09-20T07:09:15.283Z,16.02
2022-09-20T07:11:46.307Z,16.48
2022-09-20T07:14:15.629Z,15.48
2022-09-20T07:16:45.890Z,15.63
2022-09-20T07:19:15.126Z,16.25
2022-09-20T07:21:43.774Z,15.45
2022-09-20T07:24:15.161Z,16.45
2022-09-20T07:26:57.829Z,16.27
2022-09-20T07:29:27.220Z,17.55
2022-09-20T07:36:29.386Z,13.55
2022-09-20T07:38:58.290Z,14.13
2022-09-20T07:41:30.517Z,15.15
2022-09-20T07:44:20.091Z,12.90
2022-09-20T07:46:49.753Z,13.38
2022-09-20T07:49:18.760Z,11.65
2022-09-20T07:51:49.016Z,12.70
2022-09-20T07:54:18.603Z,10.85
2022-09-20T07:56:48.298Z,10.30
2022-09-20T07:59:17.568Z,12.35
2022-09-20T08:06:21.456Z,11.63
2022-09-20T08:08:52.332Z,12.25
2022-09-20T08:11:28.686Z,11.52
2022-09-20T08:14:08.017Z,11.93
2022-09-20T08:16:42.878Z,13.23
2022-09-20T08:19:17.691Z,12.93
2022-09-20T08:21:46.989Z,15.40
2022-09-20T08:24:17.801Z,13.35
2022-09-20T08:26:46.696Z,15.15
2022-09-20T08:29:16.111Z,16.27
2022-09-20T08:31:45.274Z,16.85
2022-09-20T08:34:16.193Z,15.57
2022-09-20T08:36:50.130Z,17.33
2022-09-20T08:42:20.054Z,18.05
2022-09-20T08:44:58.741Z,18.38
2022-09-20T08:47:32.089Z,16.98
2022-09-20T08:50:16.834Z,16.23
2022-09-20T08:52:49.397Z,14.73
2022-09-20T08:55:23.132Z,14.80
2022-09-20T08:57:56.320Z,15.50
2022-09-20T09:00:29.778Z,18.80
2022-09-20T09:03:05.403Z,19.88
2022-09-20T09:05:38.344Z,16.85
2022-09-20T09:08:16.478Z,16.30
2022-09-20T09:10:52.887Z,15.57
2022-09-20T09:13:32.847Z,16.73
2022-09-20T09:16:10.778Z,16.52
2022-09-20T09:23:44.790Z,16.35
2022-09-20T09:26:22.543Z,17.10
2022-09-20T09:29:16.671Z,13.88
2022-09-20T09:31:47.186Z,13.95
2022-09-20T09:34:35.409Z,14.05
2022-09-20T09:37:04.412Z,15.85
2022-09-20T09:44:11.048Z,13.88
2022-09-20T09:46:41.468Z,12.98
2022-09-20T09:49:17.274Z,13.55
2022-09-20T09:52:05.442Z,13.80
2022-09-20T09:54:39.509Z,13.60
2022-09-20T09:57:26.902Z,14.25
2022-09-20T10:00:16.064Z,13.98
2022-09-20T10:03:17.092Z,12.43
2022-09-20T10:06:04.953Z,13.18
2022-09-20T10:08:49.820Z,11.75
2022-09-20T10:11:38.957Z,10.35
2022-09-20T10:14:29.643Z,10.55
2022-09-20T10:17:20.747Z,11.93
2022-09-20T10:20:16.477Z,12.25
2022-09-20T10:23:29.962Z,11.18
2022-09-20T10:25:58.346Z,11.65
2022-09-20T10:28:50.443Z,10.23
2022-09-20T10:31:42.568Z,12.18
2022-09-20T10:34:45.060Z,10.80
2022-09-20T10:37:23.491Z,9.85
2022-09-20T10:40:08.312Z,8.88
2022-09-20T10:43:05.439Z,8.30
2022-09-20T10:50:28.225Z,8.60
2022-09-20T10:53:13.705Z,8.90
2022-09-20T10:55:53.066Z,8.70
2022-09-20T10:59:04.344Z,7.78
2022-09-20T11:01:43.575Z,7.07
2022-09-20T11:04:59.057Z,7.43
2022-09-20T11:07:48.708Z,6.85
2022-09-20T11:10:24.361Z,6.28
2022-09-20T11:13:02.241Z,6.40
2022-09-20T11:15:41.791Z,5.82
2022-09-20T11:18:23.637Z,5.70
2022-09-20T11:21:08.172Z,5.70
2022-09-20T11:23:51.037Z,5.20
2022-09-20T11:26:28.914Z,4.63
2022-09-20T11:29:06.105Z,4.30
2022-09-20T11:31:42.999Z,4.28
2022-09-20T11:34:22.197Z,4.68
2022-09-20T11:36:58.836Z,4.13
2022-09-20T11:39:38.223Z,4.57
2022-09-20T11:42:13.133Z,4.05
2022-09-20T11:44:43.884Z,4.10
2022-09-20T11:47:42.865Z,4.45
2022-09-20T11:51:07.142Z,5.07
2022-09-20T11:58:13.429Z,3.67
2022-09-20T12:00:47.914Z,3.92
2022-09-20T12:03:33.653Z,4.50
2022-09-20T12:06:05.642Z,4.60
2022-09-20T12:08:38.981Z,4.35
2022-09-20T13:04:56.423Z,2.50
2022-09-20T13:07:42.764Z,2.60
2022-09-20T13:10:27.594Z,2.80
2022-09-20T13:13:04.751Z,3.08
2022-09-20T13:15:34.931Z,2.53
2022-09-20T13:18:04.075Z,2.55
2022-09-20T13:20:35.892Z,2.72
2022-09-20T13:23:06.479Z,2.70
2022-09-20T13:25:40.034Z,2.47
2022-09-20T13:28:21.407Z,2.88
2022-09-20T13:30:50.083Z,2.30
2022-09-20T13:33:24.429Z,2.30
2022-09-20T13:40:34.331Z,2.70
2022-09-20T13:43:23.007Z,2.88
2022-09-20T13:45:57.374Z,2.38
2022-09-20T13:48:28.582Z,2.35
2022-09-20T13:50:58.789Z,2.63
2022-09-20T13:53:41.428Z,2.30
2022-09-20T13:56:22.531Z,2.53
2022-09-20T13:58:52.786Z,2.90
2022-09-20T14:01:30.966Z,2.95
2022-09-20T14:04:07.974Z,2.25
2022-09-20T14:06:37.910Z,2.15
2022-09-20T14:09:11.506Z,2.25
2022-09-20T14:11:42.122Z,2.38
2022-09-20T14:14:19.889Z,2.55
2022-09-20T14:16:54.177Z,2.63
2022-09-20T14:19:32.259Z,3.00
2022-09-20T14:22:06.418Z,2.53
2022-09-20T14:24:37.529Z,2.85
2022-09-20T14:27:22.248Z,2.72
2022-09-20T14:29:53.252Z,2.50
2022-09-20T14:32:48.160Z,3.15
2022-09-20T14:35:20.425Z,2.75
2022-09-20T14:37:53.161Z,2.90
2022-09-20T14:44:55.242Z,5.68
2022-09-20T14:47:30.163Z,3.05
2022-09-20T14:49:59.141Z,3.40
2022-09-20T14:52:43.742Z,2.30
2022-09-20T14:55:28.389Z,2.30
2022-09-20T14:58:05.581Z,2.35
2022-09-20T15:00:51.753Z,2.22
2022-09-20T15:03:28.317Z,1.90
2022-09-20T15:05:57.488Z,1.85
2022-09-20T15:08:26.518Z,2.80
2022-09-20T15:10:55.078Z,2.70
2022-09-20T15:13:24.039Z,2.67
2022-09-20T15:15:55.408Z,2.58
2022-09-20T15:18:27.316Z,2.92
2022-09-20T15:20:56.755Z,6.07
2022-09-20T15:23:25.388Z,2.92
2022-09-20T15:25:56.342Z,2.10
2022-09-20T15:28:26.765Z,2.38
2022-09-20T15:30:58.604Z,2.17
2022-09-20T15:33:32.330Z,1.85
2022-09-20T15:36:03.263Z,2.85
2022-09-20T15:38:32.220Z,3.10
2022-09-20T15:41:04.745Z,2.90
2022-09-20T15:43:34.033Z,2.70
2022-09-20T15:46:20.503Z,3.10
2022-09-20T15:48:49.698Z,4.05
2022-09-20T15:51:18.516Z,3.17
2022-09-20T15:53:55.577Z,3.00
2022-09-20T15:56:27.458Z,3.28
2022-09-20T15:59:00.339Z,2.42
2022-09-20T16:01:34.003Z,3.17
2022-09-20T16:04:07.561Z,3.60
2022-09-20T16:06:37.355Z,4.00
2022-09-20T16:09:07.735Z,3.95
2022-09-20T16:11:37.693Z,2.25
2022-09-20T16:14:07.739Z,1.83
2022-09-20T16:16:40.635Z,1.50
2022-09-20T16:19:20.926Z,1.60
2022-09-20T16:21:57.651Z,1.40
2022-09-20T16:24:30.592Z,1.50
2022-09-20T16:27:01.355Z,1.10
2022-09-20T16:29:31.476Z,1.40
2022-09-20T16:32:03.959Z,1.90
2022-09-20T16:34:34.962Z,1.63
2022-09-20T16:37:09.346Z,2.13
2022-09-20T16:39:38.599Z,1.88
2022-09-20T16:42:09.092Z,2.35
2022-09-20T16:44:40.521Z,2.45
2022-09-20T16:47:21.974Z,2.60
2022-09-20T16:49:51.986Z,2.33
2022-09-20T16:52:20.996Z,2.50
2022-09-20T16:54:49.968Z,2.50
2022-09-20T16:57:19.266Z,1.83
2022-09-20T16:59:48.264Z,2.30
2022-09-20T17:02:18.823Z,2.97
2022-09-20T17:04:47.567Z,4.75
2022-09-20T17:07:16.413Z,5.05
2022-09-20T17:09:45.544Z,5.28
2022-09-20T17:12:15.076Z,6.03
2022-09-20T17:14:44.137Z,16.50
2022-09-20T17:17:13.580Z,14.18
2022-09-20T17:19:43.528Z,22.05
2022-09-20T17:22:12.864Z,12.10
2022-09-20T17:24:42.076Z,11.20
2022-09-20T17:27:11.344Z,10.05
2022-09-20T17:29:40.146Z,6.63
2022-09-20T17:32:09.081Z,6.50
2022-09-20T17:34:37.944Z,6.85
2022-09-20T17:37:08.239Z,5.72
2022-09-20T17:39:36.831Z,5.65
2022-09-20T17:42:05.869Z,5.43
2022-09-20T17:44:36.821Z,4.57
2022-09-20T17:47:06.397Z,6.10
2022-09-20T17:49:35.006Z,9.90
2022-09-20T17:52:07.977Z,9.88
2022-09-20T17:54:37.898Z,9.60
2022-09-20T17:57:06.728Z,13.32
2022-09-20T17:59:36.690Z,12.20
2022-09-20T18:02:05.822Z,12.38
2022-09-20T18:04:34.547Z,11.70
2022-09-20T18:07:04.174Z,10.10
2022-09-20T18:09:32.774Z,11.45
2022-09-20T18:12:04.997Z,10.43
2022-09-20T18:14:33.564Z,9.00
2022-09-20T18:17:02.229Z,8.77
2022-09-20T18:19:33.956Z,9.98
2022-09-20T18:22:03.584Z,10.30
2022-09-20T18:24:32.724Z,10.32
2022-09-20T18:27:04.399Z,8.60
2022-09-20T18:29:36.720Z,8.85
2022-09-20T18:32:08.522Z,9.30
2022-09-20T18:34:37.283Z,9.35
2022-09-20T18:37:10.068Z,9.40
2022-09-20T18:39:43.058Z,9.88
2022-09-20T18:42:13.167Z,9.35
2022-09-20T18:44:43.926Z,8.82
2022-09-20T18:47:12.661Z,8.75
2022-09-20T18:49:41.435Z,9.68
2022-09-20T18:52:12.486Z,10.60
2022-09-20T18:54:41.365Z,9.70
2022-09-20T18:57:13.473Z,10.00
2022-09-20T18:59:53.635Z,9.95
2022-09-20T19:02:49.364Z,8.95
2022-09-20T19:05:29.438Z,10.82
2022-09-20T19:08:26.766Z,10.40
2022-09-20T19:11:04.516Z,10.30
2022-09-20T19:13:46.044Z,9.88
2022-09-20T19:16:22.358Z,10.02
2022-09-20T19:19:26.562Z,10.85
2022-09-20T19:22:16.317Z,8.77
2022-09-20T19:25:16.592Z,9.55
2022-09-20T19:27:46.226Z,9.05
2022-09-20T19:30:18.066Z,10.07
2022-09-20T19:32:48.082Z,10.70
2022-09-20T19:35:25.159Z,10.95
2022-09-20T19:42:39.114Z,10.10
2022-09-20T19:45:25.445Z,9.05
2022-09-20T19:48:07.938Z,11.18
2022-09-20T19:50:44.729Z,11.45
2022-09-20T19:53:14.945Z,9.80
2022-09-20T19:55:49.033Z,12.82
2022-09-20T19:58:18.625Z,12.35
2022-09-20T20:00:49.741Z,11.38
2022-09-20T20:03:19.097Z,11.35
2022-09-20T20:06:07.205Z,9.98
2022-09-20T20:13:42.983Z,9.00
2022-09-20T20:16:21.020Z,8.70
2022-09-20T20:19:14.207Z,8.80
2022-09-20T20:21:52.727Z,8.00
2022-09-20T20:28:53.694Z,5.97
2022-09-20T20:31:24.266Z,6.10
2022-09-20T20:43:02.051Z,6.72
2022-09-20T20:45:31.271Z,6.30
2022-09-20T20:48:01.294Z,6.38
2022-09-20T20:50:30.589Z,6.47
2022-09-20T20:57:32.063Z,6.45
2022-09-20T21:00:00.829Z,6.65
2022-09-20T21:02:29.566Z,6.90
2022-09-20T21:04:59.552Z,7.03
2022-09-20T21:12:02.550Z,7.53
2022-09-20T21:14:31.967Z,8.32
2022-09-20T21:17:01.875Z,8.80
2022-09-20T21:19:30.604Z,7.45
2022-09-20T21:22:00.759Z,8.02
2022-09-20T21:24:29.386Z,7.90
2022-09-20T21:26:57.934Z,6.53
2022-09-20T21:29:26.685Z,7.40
2022-09-20T21:31:55.540Z,6.35
2022-09-20T21:34:24.049Z,5.63
2022-09-20T21:36:52.802Z,6.47
2022-09-20T21:39:22.725Z,6.45
2022-09-20T21:41:52.617Z,6.18
2022-09-20T21:48:53.544Z,5.55
2022-09-20T21:51:23.310Z,5.55
2022-09-20T21:53:56.438Z,5.95
2022-09-20T21:56:28.988Z,5.30
2022-09-20T21:58:58.042Z,5.35
2022-09-20T22:01:29.439Z,4.70
2022-09-20T22:04:00.931Z,4.38
2022-09-20T22:06:33.736Z,4.25
2022-09-20T22:09:06.003Z,3.70
2022-09-20T22:11:39.967Z,4.53
2022-09-20T22:14:10.328Z,3.75
2022-09-20T22:16:41.660Z,3.75
2022-09-20T22:19:13.123Z,3.80
2022-09-20T22:21:44.560Z,3.90
2022-09-20T22:24:15.557Z,3.83
2022-09-20T22:26:47.940Z,3.78
2022-09-20T22:29:17.539Z,3.72
2022-09-20T22:31:49.210Z,4.00
2022-09-20T22:34:19.834Z,4.00
2022-09-20T22:41:21.897Z,4.60
2022-09-20T22:43:52.453Z,4.15
2022-09-20T22:46:24.450Z,4.13
2022-09-20T22:48:53.268Z,4.45
2022-09-20T22:51:24.889Z,4.13
2022-09-20T22:53:54.303Z,4.20
2022-09-20T22:56:25.820Z,4.72
2022-09-20T22:59:00.047Z,4.72
2022-09-20T23:01:31.494Z,4.13
2022-09-20T23:04:04.092Z,4.07
2022-09-20T23:06:36.979Z,4.45
2022-09-20T23:09:09.543Z,4.45
2022-09-20T23:11:39.818Z,4.63
2022-09-20T23:14:14.032Z,4.80
2022-09-20T23:16:44.358Z,4.03
2022-09-20T23:19:14.668Z,4.45
2022-09-20T23:21:44.920Z,4.45
2022-09-20T23:24:16.583Z,4.35
2022-09-20T23:26:46.306Z,4.47
2022-09-20T23:29:18.251Z,4.20
2022-09-20T23:31:47.984Z,4.82
2022-09-20T23:34:18.817Z,4.80
2022-09-20T23:36:47.952Z,4.82
2022-09-20T23:39:16.738Z,4.93
2022-09-20T23:41:50.702Z,5.70
2022-09-20T23:44:21.462Z,5.38
2022-09-20T23:46:50.238Z,5.47
2022-09-20T23:49:19.026Z,5.75
2022-09-20T23:51:47.646Z,5.13
2022-09-20T23:54:16.443Z,5.43
2022-09-20T23:56:44.974Z,5.50
2022-09-20T23:59:13.502Z,5.88
